sensor_id;sensor_type;location;lat;lon;timestamp;P1;P2;P0
50589;PMS7003;36547;50.514;30.840;2023-08-08T00:00:40;5.00;4.20;3.60
50589;PMS7003;36547;50.514;30.840;2023-08-08T00:01:42;4.20;4.20;3.70
50589;PMS7003;36547;50.514;30.840;2023-08-08T00:02:45;4.50;4.50;3.60
50589;PMS7003;36547;50.514;30.840;2023-08-08T00:03:47;3.60;3.60;3.50
50589;PMS7003;36547;50.514;30.840;2023-08-08T00:04:50;4.70;4.70;4.00
50589;PMS7003;36547;50.514;30.840;2023-08-08T00:05:52;5.20;4.20;3.10
50589;PMS7003;36547;50.514;30.840;2023-08-08T00:06:55;3.64;3.36;2.91
50589;PMS7003;36547;50.514;30.840;2023-08-08T00:07:57;4.80;4.00;3.60
50589;PMS7003;36547;50.514;30.840;2023-08-08T00:09:00;4.80;4.10;3.20
50589;PMS7003;36547;50.514;30.840;2023-08-08T00:10:04;4.60;4.60;3.80
50589;PMS7003;36547;50.514;30.840;2023-08-08T00:11:06;5.70;4.30;4.00
50589;PMS7003;36547;50.514;30.840;2023-08-08T00:12:09;4.20;4.20;3.30
50589;PMS7003;36547;50.514;30.840;2023-08-08T00:13:12;4.82;3.45;3.36
50589;PMS7003;36547;50.514;30.840;2023-08-08T00:14:14;3.60;3.60;2.60
50589;PMS7003;36547;50.514;30.840;2023-08-08T00:15:16;4.60;4.60;3.30
50589;PMS7003;36547;50.514;30.840;2023-08-08T00:16:19;5.20;4.90;3.90
50589;PMS7003;36547;50.514;30.840;2023-08-08T00:17:22;3.80;3.80;3.40
50589;PMS7003;36547;50.514;30.840;2023-08-08T00:18:24;4.20;4.20;3.70
50589;PMS7003;36547;50.514;30.840;2023-08-08T00:19:26;5.50;5.50;4.00
50589;PMS7003;36547;50.514;30.840;2023-08-08T00:20:29;5.10;4.60;3.40
50589;PMS7003;36547;50.514;30.840;2023-08-08T00:21:31;4.00;4.00;3.20
50589;PMS7003;36547;50.514;30.840;2023-08-08T00:22:33;3.30;3.30;2.80
50589;PMS7003;36547;50.514;30.840;2023-08-08T00:23:36;3.90;3.90;3.40
50589;PMS7003;36547;50.514;30.840;2023-08-08T00:24:38;3.10;3.10;2.20
50589;PMS7003;36547;50.514;30.840;2023-08-08T00:25:40;3.90;3.90;3.60
50589;PMS7003;36547;50.514;30.840;2023-08-08T00:26:43;4.10;4.10;3.20
50589;PMS7003;36547;50.514;30.840;2023-08-08T00:27:46;3.80;3.80;3.00
50589;PMS7003;36547;50.514;30.840;2023-08-08T00:28:48;5.10;4.50;3.40
50589;PMS7003;36547;50.514;30.840;2023-08-08T00:29:52;3.70;3.70;3.10
50589;PMS7003;36547;50.514;30.840;2023-08-08T00:30:55;4.30;4.30;3.60
50589;PMS7003;36547;50.514;30.840;2023-08-08T00:31:58;4.60;2.40;1.40
50589;PMS7003;36547;50.514;30.840;2023-08-08T00:33:01;4.10;4.10;3.40
50589;PMS7003;36547;50.514;30.840;2023-08-08T00:34:04;4.00;4.00;3.50
50589;PMS7003;36547;50.514;30.840;2023-08-08T00:35:06;3.80;3.80;3.70
50589;PMS7003;36547;50.514;30.840;2023-08-08T00:36:10;4.50;4.50;3.30
50589;PMS7003;36547;50.514;30.840;2023-08-08T00:37:12;5.30;4.00;3.10
50589;PMS7003;36547;50.514;30.840;2023-08-08T00:38:15;4.18;4.18;3.36
50589;PMS7003;36547;50.514;30.840;2023-08-08T00:39:18;4.90;4.10;3.80
50589;PMS7003;36547;50.514;30.840;2023-08-08T00:40:20;5.50;5.30;4.50
50589;PMS7003;36547;50.514;30.840;2023-08-08T00:41:23;5.00;5.00;4.20
50589;PMS7003;36547;50.514;30.840;2023-08-08T00:42:25;5.20;5.20;4.60
50589;PMS7003;36547;50.514;30.840;2023-08-08T00:43:27;4.30;4.30;3.40
50589;PMS7003;36547;50.514;30.840;2023-08-08T00:44:30;4.80;4.30;4.00
50589;PMS7003;36547;50.514;30.840;2023-08-08T00:45:32;4.00;4.00;3.50
50589;PMS7003;36547;50.514;30.840;2023-08-08T00:46:35;5.50;4.80;4.20
50589;PMS7003;36547;50.514;30.840;2023-08-08T00:47:37;3.20;3.20;2.70
50589;PMS7003;36547;50.514;30.840;2023-08-08T00:48:40;4.70;3.90;3.50
50589;PMS7003;36547;50.514;30.840;2023-08-08T00:49:42;3.70;3.70;3.50
50589;PMS7003;36547;50.514;30.840;2023-08-08T00:50:45;4.27;3.36;3.18
50589;PMS7003;36547;50.514;30.840;2023-08-08T00:51:50;3.50;3.50;2.80
50589;PMS7003;36547;50.514;30.840;2023-08-08T00:52:53;3.40;3.40;3.20
50589;PMS7003;36547;50.514;30.840;2023-08-08T00:53:55;3.90;3.00;2.40
50589;PMS7003;36547;50.514;30.840;2023-08-08T00:54:59;4.20;3.60;3.10
50589;PMS7003;36547;50.514;30.840;2023-08-08T00:56:02;3.50;3.50;3.00
50589;PMS7003;36547;50.514;30.840;2023-08-08T00:57:05;4.00;4.00;3.40
50589;PMS7003;36547;50.514;30.840;2023-08-08T00:58:07;3.40;3.40;3.30
50589;PMS7003;36547;50.514;30.840;2023-08-08T00:59:11;3.90;3.90;3.60
50589;PMS7003;36547;50.514;30.840;2023-08-08T01:00:16;4.50;4.10;3.60
50589;PMS7003;36547;50.514;30.840;2023-08-08T01:01:19;5.64;5.64;4.00
50589;PMS7003;36547;50.514;30.840;2023-08-08T01:02:22;3.70;3.60;3.00
50589;PMS7003;36547;50.514;30.840;2023-08-08T01:03:25;5.00;5.00;4.00
50589;PMS7003;36547;50.514;30.840;2023-08-08T01:04:28;5.70;4.30;3.50
50589;PMS7003;36547;50.514;30.840;2023-08-08T01:05:33;6.18;4.82;3.82
50589;PMS7003;36547;50.514;30.840;2023-08-08T01:06:48;4.50;4.50;3.70
50589;PMS7003;36547;50.514;30.840;2023-08-08T01:08:03;3.60;3.50;2.90
50589;PMS7003;36547;50.514;30.840;2023-08-08T01:11:30;4.80;4.80;3.90
50589;PMS7003;36547;50.514;30.840;2023-08-08T01:12:40;4.50;4.50;3.80
50589;PMS7003;36547;50.514;30.840;2023-08-08T01:13:45;3.60;3.60;2.90
50589;PMS7003;36547;50.514;30.840;2023-08-08T01:14:50;3.90;3.90;3.40
50589;PMS7003;36547;50.514;30.840;2023-08-08T01:15:53;4.10;4.10;3.50
50589;PMS7003;36547;50.514;30.840;2023-08-08T01:16:58;4.50;3.30;3.10
50589;PMS7003;36547;50.514;30.840;2023-08-08T01:18:03;4.60;4.60;3.80
50589;PMS7003;36547;50.514;30.840;2023-08-08T01:19:07;5.00;4.00;3.60
50589;PMS7003;36547;50.514;30.840;2023-08-08T01:20:12;4.60;3.90;3.10
50589;PMS7003;36547;50.514;30.840;2023-08-08T01:21:16;4.10;4.10;3.40
50589;PMS7003;36547;50.514;30.840;2023-08-08T01:23:33;6.10;4.20;3.20
50589;PMS7003;36547;50.514;30.840;2023-08-08T01:24:37;3.50;3.50;2.50
50589;PMS7003;36547;50.514;30.840;2023-08-08T01:25:40;5.18;4.36;3.64
50589;PMS7003;36547;50.514;30.840;2023-08-08T01:26:43;3.91;3.82;3.36
50589;PMS7003;36547;50.514;30.840;2023-08-08T01:27:46;4.82;4.18;3.36
50589;PMS7003;36547;50.514;30.840;2023-08-08T01:28:48;5.60;3.80;2.90
50589;PMS7003;36547;50.514;30.840;2023-08-08T01:30:00;5.00;5.00;4.40
50589;PMS7003;36547;50.514;30.840;2023-08-08T01:31:02;4.30;4.30;3.40
50589;PMS7003;36547;50.514;30.840;2023-08-08T01:32:05;6.10;5.40;4.30
50589;PMS7003;36547;50.514;30.840;2023-08-08T01:33:09;4.20;4.20;3.60
50589;PMS7003;36547;50.514;30.840;2023-08-08T01:34:12;3.91;3.91;3.18
50589;PMS7003;36547;50.514;30.840;2023-08-08T01:35:15;4.60;4.60;3.70
50589;PMS7003;36547;50.514;30.840;2023-08-08T01:36:29;3.90;3.90;3.20
50589;PMS7003;36547;50.514;30.840;2023-08-08T01:37:41;4.50;4.50;3.70
50589;PMS7003;36547;50.514;30.840;2023-08-08T01:38:57;4.60;4.60;4.10
50589;PMS7003;36547;50.514;30.840;2023-08-08T01:40:04;5.30;5.30;4.70
50589;PMS7003;36547;50.514;30.840;2023-08-08T01:41:08;3.90;3.90;3.20
50589;PMS7003;36547;50.514;30.840;2023-08-08T01:42:11;4.70;4.70;3.40
50589;PMS7003;36547;50.514;30.840;2023-08-08T01:43:15;6.00;5.30;4.30
50589;PMS7003;36547;50.514;30.840;2023-08-08T01:44:19;4.50;4.00;3.30
50589;PMS7003;36547;50.514;30.840;2023-08-08T01:45:23;4.50;4.10;3.60
50589;PMS7003;36547;50.514;30.840;2023-08-08T01:46:26;4.10;4.10;3.30
50589;PMS7003;36547;50.514;30.840;2023-08-08T01:47:29;4.70;4.70;3.90
50589;PMS7003;36547;50.514;30.840;2023-08-08T01:48:32;5.10;4.50;3.60
50589;PMS7003;36547;50.514;30.840;2023-08-08T01:49:34;4.70;3.80;2.90
50589;PMS7003;36547;50.514;30.840;2023-08-08T01:50:37;4.80;4.80;4.30
50589;PMS7003;36547;50.514;30.840;2023-08-08T01:51:40;4.30;4.30;3.30
50589;PMS7003;36547;50.514;30.840;2023-08-08T01:52:43;3.80;3.80;3.30
50589;PMS7003;36547;50.514;30.840;2023-08-08T01:53:45;5.40;5.10;4.70
50589;PMS7003;36547;50.514;30.840;2023-08-08T01:54:48;3.70;3.30;2.40
50589;PMS7003;36547;50.514;30.840;2023-08-08T01:55:51;2.82;2.82;2.64
50589;PMS7003;36547;50.514;30.840;2023-08-08T01:56:54;4.00;3.90;3.40
50589;PMS7003;36547;50.514;30.840;2023-08-08T01:57:57;5.30;5.30;3.90
50589;PMS7003;36547;50.514;30.840;2023-08-08T01:58:59;4.40;3.70;3.20
50589;PMS7003;36547;50.514;30.840;2023-08-08T02:00:02;4.30;3.50;2.90
50589;PMS7003;36547;50.514;30.840;2023-08-08T02:01:07;3.50;3.50;3.40
50589;PMS7003;36547;50.514;30.840;2023-08-08T02:02:10;3.40;3.40;3.00
50589;PMS7003;36547;50.514;30.840;2023-08-08T02:03:12;5.20;3.60;3.00
50589;PMS7003;36547;50.514;30.840;2023-08-08T02:04:15;4.50;3.40;3.50
50589;PMS7003;36547;50.514;30.840;2023-08-08T02:05:17;5.00;3.90;3.80
50589;PMS7003;36547;50.514;30.840;2023-08-08T02:06:20;3.82;3.82;3.45
50589;PMS7003;36547;50.514;30.840;2023-08-08T02:07:23;3.70;3.70;3.50
50589;PMS7003;36547;50.514;30.840;2023-08-08T02:08:25;5.40;4.60;4.00
50589;PMS7003;36547;50.514;30.840;2023-08-08T02:09:28;4.80;4.30;3.50
50589;PMS7003;36547;50.514;30.840;2023-08-08T02:10:30;5.10;4.60;3.20
50589;PMS7003;36547;50.514;30.840;2023-08-08T02:11:32;5.20;4.70;3.90
50589;PMS7003;36547;50.514;30.840;2023-08-08T02:12:34;4.90;4.60;3.60
50589;PMS7003;36547;50.514;30.840;2023-08-08T02:13:37;3.80;3.80;3.40
50589;PMS7003;36547;50.514;30.840;2023-08-08T02:14:40;3.70;3.50;3.00
50589;PMS7003;36547;50.514;30.840;2023-08-08T02:15:42;4.60;4.20;3.90
50589;PMS7003;36547;50.514;30.840;2023-08-08T02:16:44;4.50;4.50;3.80
50589;PMS7003;36547;50.514;30.840;2023-08-08T02:17:49;5.00;5.00;4.10
50589;PMS7003;36547;50.514;30.840;2023-08-08T02:18:52;4.20;4.20;3.70
50589;PMS7003;36547;50.514;30.840;2023-08-08T02:19:54;4.40;4.20;3.50
50589;PMS7003;36547;50.514;30.840;2023-08-08T02:20:57;4.60;3.90;3.00
50589;PMS7003;36547;50.514;30.840;2023-08-08T02:21:59;3.70;3.60;3.40
50589;PMS7003;36547;50.514;30.840;2023-08-08T02:23:02;4.10;4.10;3.30
50589;PMS7003;36547;50.514;30.840;2023-08-08T02:24:06;3.70;3.70;3.30
50589;PMS7003;36547;50.514;30.840;2023-08-08T02:25:09;4.45;3.27;3.00
50589;PMS7003;36547;50.514;30.840;2023-08-08T02:26:12;3.70;3.70;3.00
50589;PMS7003;36547;50.514;30.840;2023-08-08T02:27:14;4.00;4.00;3.10
50589;PMS7003;36547;50.514;30.840;2023-08-08T02:28:16;3.50;3.50;2.90
50589;PMS7003;36547;50.514;30.840;2023-08-08T02:29:19;4.40;3.00;2.80
50589;PMS7003;36547;50.514;30.840;2023-08-08T02:30:21;4.30;3.50;3.30
50589;PMS7003;36547;50.514;30.840;2023-08-08T02:31:24;3.30;3.30;3.00
50589;PMS7003;36547;50.514;30.840;2023-08-08T02:32:27;3.90;3.10;2.90
50589;PMS7003;36547;50.514;30.840;2023-08-08T02:33:30;3.60;3.60;2.80
50589;PMS7003;36547;50.514;30.840;2023-08-08T02:34:33;4.00;4.00;3.40
50589;PMS7003;36547;50.514;30.840;2023-08-08T02:35:36;3.00;3.00;2.50
50589;PMS7003;36547;50.514;30.840;2023-08-08T02:36:39;5.30;3.50;2.90
50589;PMS7003;36547;50.514;30.840;2023-08-08T02:37:42;5.90;4.00;3.20
50589;PMS7003;36547;50.514;30.840;2023-08-08T02:38:44;4.90;3.90;2.90
50589;PMS7003;36547;50.514;30.840;2023-08-08T02:39:46;4.00;4.00;3.60
50589;PMS7003;36547;50.514;30.840;2023-08-08T02:40:50;5.20;3.50;2.80
50589;PMS7003;36547;50.514;30.840;2023-08-08T02:41:53;2.91;2.91;2.64
50589;PMS7003;36547;50.514;30.840;2023-08-08T02:42:55;4.50;4.00;3.50
50589;PMS7003;36547;50.514;30.840;2023-08-08T02:43:58;4.70;3.90;3.00
50589;PMS7003;36547;50.514;30.840;2023-08-08T02:45:00;3.60;3.60;3.10
50589;PMS7003;36547;50.514;30.840;2023-08-08T02:46:03;4.00;3.80;3.30
50589;PMS7003;36547;50.514;30.840;2023-08-08T02:47:06;5.40;4.70;3.80
50589;PMS7003;36547;50.514;30.840;2023-08-08T02:48:08;5.60;4.10;3.30
50589;PMS7003;36547;50.514;30.840;2023-08-08T02:49:12;3.80;3.80;3.40
50589;PMS7003;36547;50.514;30.840;2023-08-08T02:50:14;6.60;4.70;3.30
50589;PMS7003;36547;50.514;30.840;2023-08-08T02:51:18;4.80;4.40;3.70
50589;PMS7003;36547;50.514;30.840;2023-08-08T02:52:20;4.60;3.80;3.50
50589;PMS7003;36547;50.514;30.840;2023-08-08T02:53:23;4.09;3.00;2.91
50589;PMS7003;36547;50.514;30.840;2023-08-08T02:54:26;4.20;4.20;3.90
50589;PMS7003;36547;50.514;30.840;2023-08-08T02:55:28;4.50;4.50;3.70
50589;PMS7003;36547;50.514;30.840;2023-08-08T02:56:31;3.55;3.55;3.00
50589;PMS7003;36547;50.514;30.840;2023-08-08T02:57:33;3.90;3.90;3.10
50589;PMS7003;36547;50.514;30.840;2023-08-08T02:58:36;3.20;3.20;2.60
50589;PMS7003;36547;50.514;30.840;2023-08-08T02:59:38;3.60;3.60;3.00
50589;PMS7003;36547;50.514;30.840;2023-08-08T03:00:42;3.20;3.00;2.80
50589;PMS7003;36547;50.514;30.840;2023-08-08T03:01:46;3.40;3.40;2.10
50589;PMS7003;36547;50.514;30.840;2023-08-08T03:02:50;4.40;4.40;3.50
50589;PMS7003;36547;50.514;30.840;2023-08-08T03:03:52;3.80;3.80;2.70
50589;PMS7003;36547;50.514;30.840;2023-08-08T03:04:56;4.60;3.80;3.40
50589;PMS7003;36547;50.514;30.840;2023-08-08T03:06:00;4.73;3.82;3.00
50589;PMS7003;36547;50.514;30.840;2023-08-08T03:07:03;5.50;4.50;3.90
50589;PMS7003;36547;50.514;30.840;2023-08-08T03:08:07;3.40;3.40;3.20
50589;PMS7003;36547;50.514;30.840;2023-08-08T03:09:09;5.60;4.00;3.60
50589;PMS7003;36547;50.514;30.840;2023-08-08T03:10:15;4.80;3.40;3.00
50589;PMS7003;36547;50.514;30.840;2023-08-08T03:11:18;4.10;3.60;3.20
50589;PMS7003;36547;50.514;30.840;2023-08-08T03:12:26;5.20;4.00;3.50
50589;PMS7003;36547;50.514;30.840;2023-08-08T03:13:34;4.40;4.20;3.40
50589;PMS7003;36547;50.514;30.840;2023-08-08T03:14:41;4.60;3.70;3.00
50589;PMS7003;36547;50.514;30.840;2023-08-08T03:15:48;3.40;3.40;2.90
50589;PMS7003;36547;50.514;30.840;2023-08-08T03:16:53;4.20;3.70;3.50
50589;PMS7003;36547;50.514;30.840;2023-08-08T03:17:57;4.70;4.70;3.50
50589;PMS7003;36547;50.514;30.840;2023-08-08T03:19:03;4.30;4.30;3.80
50589;PMS7003;36547;50.514;30.840;2023-08-08T03:20:09;5.00;4.10;3.20
50589;PMS7003;36547;50.514;30.840;2023-08-08T03:21:17;4.40;4.40;3.70
50589;PMS7003;36547;50.514;30.840;2023-08-08T03:22:22;5.20;4.60;3.80
50589;PMS7003;36547;50.514;30.840;2023-08-08T03:23:28;3.00;3.00;2.70
50589;PMS7003;36547;50.514;30.840;2023-08-08T03:24:32;3.60;3.60;2.70
50589;PMS7003;36547;50.514;30.840;2023-08-08T03:25:36;4.40;4.40;3.80
50589;PMS7003;36547;50.514;30.840;2023-08-08T03:26:45;5.40;4.80;3.50
50589;PMS7003;36547;50.514;30.840;2023-08-08T03:27:49;4.40;3.70;2.90
50589;PMS7003;36547;50.514;30.840;2023-08-08T03:28:54;4.30;4.30;3.40
50589;PMS7003;36547;50.514;30.840;2023-08-08T03:29:59;4.00;4.00;3.10
50589;PMS7003;36547;50.514;30.840;2023-08-08T03:31:06;4.90;4.30;3.60
50589;PMS7003;36547;50.514;30.840;2023-08-08T03:32:09;4.20;4.20;3.60
50589;PMS7003;36547;50.514;30.840;2023-08-08T03:33:16;5.20;5.20;3.70
50589;PMS7003;36547;50.514;30.840;2023-08-08T03:34:19;4.70;3.80;3.00
50589;PMS7003;36547;50.514;30.840;2023-08-08T03:35:25;5.40;4.50;3.40
50589;PMS7003;36547;50.514;30.840;2023-08-08T03:36:29;4.40;4.40;3.70
50589;PMS7003;36547;50.514;30.840;2023-08-08T03:37:35;4.90;4.90;4.00
50589;PMS7003;36547;50.514;30.840;2023-08-08T03:38:42;3.80;3.80;3.00
50589;PMS7003;36547;50.514;30.840;2023-08-08T03:39:49;5.90;5.00;4.30
50589;PMS7003;36547;50.514;30.840;2023-08-08T03:40:58;4.40;3.70;3.50
50589;PMS7003;36547;50.514;30.840;2023-08-08T03:42:07;4.60;4.30;4.10
50589;PMS7003;36547;50.514;30.840;2023-08-08T03:43:16;4.70;3.60;3.00
50589;PMS7003;36547;50.514;30.840;2023-08-08T03:44:22;4.80;4.10;3.30
50589;PMS7003;36547;50.514;30.840;2023-08-08T03:45:27;4.50;4.50;3.60
50589;PMS7003;36547;50.514;30.840;2023-08-08T03:46:33;3.70;3.20;3.00
50589;PMS7003;36547;50.514;30.840;2023-08-08T03:47:40;4.20;3.50;3.40
50589;PMS7003;36547;50.514;30.840;2023-08-08T03:49:03;3.40;3.10;2.80
50589;PMS7003;36547;50.514;30.840;2023-08-08T03:50:08;3.50;3.50;3.00
50589;PMS7003;36547;50.514;30.840;2023-08-08T03:51:15;3.00;3.00;2.70
50589;PMS7003;36547;50.514;30.840;2023-08-08T03:52:18;5.55;4.55;3.27
50589;PMS7003;36547;50.514;30.840;2023-08-08T03:53:25;5.20;4.60;3.70
50589;PMS7003;36547;50.514;30.840;2023-08-08T03:54:31;4.90;4.90;3.90
50589;PMS7003;36547;50.514;30.840;2023-08-08T03:55:36;3.60;3.60;2.90
50589;PMS7003;36547;50.514;30.840;2023-08-08T03:56:40;3.30;3.30;2.50
50589;PMS7003;36547;50.514;30.840;2023-08-08T03:57:47;2.30;2.30;1.90
50589;PMS7003;36547;50.514;30.840;2023-08-08T03:58:50;4.10;3.90;3.70
50589;PMS7003;36547;50.514;30.840;2023-08-08T03:59:56;3.00;3.00;3.00
50589;PMS7003;36547;50.514;30.840;2023-08-08T04:01:02;5.10;5.10;3.40
50589;PMS7003;36547;50.514;30.840;2023-08-08T04:02:06;5.40;5.40;4.40
50589;PMS7003;36547;50.514;30.840;2023-08-08T04:03:09;4.00;4.00;3.60
50589;PMS7003;36547;50.514;30.840;2023-08-08T04:04:16;4.40;3.80;3.60
50589;PMS7003;36547;50.514;30.840;2023-08-08T04:05:20;4.30;4.30;3.70
50589;PMS7003;36547;50.514;30.840;2023-08-08T04:06:27;5.70;5.30;4.50
50589;PMS7003;36547;50.514;30.840;2023-08-08T04:07:34;4.90;4.20;3.90
50589;PMS7003;36547;50.514;30.840;2023-08-08T04:08:38;3.70;3.30;2.60
50589;PMS7003;36547;50.514;30.840;2023-08-08T04:09:44;5.10;4.20;3.30
50589;PMS7003;36547;50.514;30.840;2023-08-08T04:10:48;4.60;4.60;4.00
50589;PMS7003;36547;50.514;30.840;2023-08-08T04:11:52;4.50;4.50;3.80
50589;PMS7003;36547;50.514;30.840;2023-08-08T04:12:55;4.70;4.70;3.30
50589;PMS7003;36547;50.514;30.840;2023-08-08T04:14:00;3.80;3.80;3.50
50589;PMS7003;36547;50.514;30.840;2023-08-08T04:15:06;3.20;3.20;2.30
50589;PMS7003;36547;50.514;30.840;2023-08-08T04:16:24;3.60;2.50;2.10
50589;PMS7003;36547;50.514;30.840;2023-08-08T04:17:28;4.20;4.20;3.70
50589;PMS7003;36547;50.514;30.840;2023-08-08T04:18:33;4.10;4.10;3.40
50589;PMS7003;36547;50.514;30.840;2023-08-08T04:19:36;4.09;4.09;3.64
50589;PMS7003;36547;50.514;30.840;2023-08-08T04:20:41;4.20;3.40;2.60
50589;PMS7003;36547;50.514;30.840;2023-08-08T04:21:46;3.00;3.00;3.00
50589;PMS7003;36547;50.514;30.840;2023-08-08T04:22:51;3.40;3.40;3.30
50589;PMS7003;36547;50.514;30.840;2023-08-08T04:23:54;4.30;4.30;3.40
50589;PMS7003;36547;50.514;30.840;2023-08-08T04:24:59;4.10;3.70;3.60
50589;PMS7003;36547;50.514;30.840;2023-08-08T04:26:02;3.30;3.30;2.50
50589;PMS7003;36547;50.514;30.840;2023-08-08T04:27:06;2.20;2.20;1.90
50589;PMS7003;36547;50.514;30.840;2023-08-08T04:28:13;4.00;4.00;3.70
50589;PMS7003;36547;50.514;30.840;2023-08-08T04:29:20;5.00;4.50;4.00
50589;PMS7003;36547;50.514;30.840;2023-08-08T04:30:23;3.50;3.50;2.80
50589;PMS7003;36547;50.514;30.840;2023-08-08T04:31:28;4.10;4.10;3.00
50589;PMS7003;36547;50.514;30.840;2023-08-08T04:32:31;2.70;2.70;2.20
50589;PMS7003;36547;50.514;30.840;2023-08-08T04:33:34;4.91;4.36;3.82
50589;PMS7003;36547;50.514;30.840;2023-08-08T04:34:36;3.10;3.10;2.60
50589;PMS7003;36547;50.514;30.840;2023-08-08T04:35:39;3.18;3.18;2.82
50589;PMS7003;36547;50.514;30.840;2023-08-08T04:36:42;4.60;4.10;4.10
50589;PMS7003;36547;50.514;30.840;2023-08-08T04:37:47;4.10;3.60;3.10
50589;PMS7003;36547;50.514;30.840;2023-08-08T04:38:49;3.00;3.00;2.90
50589;PMS7003;36547;50.514;30.840;2023-08-08T04:39:52;3.20;3.20;2.90
50589;PMS7003;36547;50.514;30.840;2023-08-08T04:40:55;3.20;3.20;2.80
50589;PMS7003;36547;50.514;30.840;2023-08-08T04:41:57;3.80;3.00;2.90
50589;PMS7003;36547;50.514;30.840;2023-08-08T04:43:01;3.80;3.60;3.30
50589;PMS7003;36547;50.514;30.840;2023-08-08T04:44:04;5.20;3.70;3.10
50589;PMS7003;36547;50.514;30.840;2023-08-08T04:45:06;2.60;2.60;2.40
50589;PMS7003;36547;50.514;30.840;2023-08-08T04:46:10;3.70;3.70;3.00
50589;PMS7003;36547;50.514;30.840;2023-08-08T04:47:13;2.82;2.64;2.55
50589;PMS7003;36547;50.514;30.840;2023-08-08T04:48:16;4.64;4.64;3.82
50589;PMS7003;36547;50.514;30.840;2023-08-08T04:49:18;3.70;3.70;2.90
50589;PMS7003;36547;50.514;30.840;2023-08-08T04:50:21;2.80;2.80;2.80
50589;PMS7003;36547;50.514;30.840;2023-08-08T04:51:23;3.30;3.30;2.80
50589;PMS7003;36547;50.514;30.840;2023-08-08T04:52:25;4.70;3.00;2.80
50589;PMS7003;36547;50.514;30.840;2023-08-08T04:53:28;3.10;3.10;2.80
50589;PMS7003;36547;50.514;30.840;2023-08-08T04:54:30;2.90;2.90;2.70
50589;PMS7003;36547;50.514;30.840;2023-08-08T04:55:33;3.20;3.20;2.90
50589;PMS7003;36547;50.514;30.840;2023-08-08T04:56:36;2.20;2.20;2.10
50589;PMS7003;36547;50.514;30.840;2023-08-08T04:57:39;3.60;3.60;2.80
50589;PMS7003;36547;50.514;30.840;2023-08-08T04:58:42;2.64;2.64;2.36
50589;PMS7003;36547;50.514;30.840;2023-08-08T04:59:44;3.00;3.00;2.40
50589;PMS7003;36547;50.514;30.840;2023-08-08T05:00:47;3.00;3.00;2.20
50589;PMS7003;36547;50.514;30.840;2023-08-08T05:01:49;3.40;3.40;2.40
50589;PMS7003;36547;50.514;30.840;2023-08-08T05:02:53;3.50;2.70;2.60
50589;PMS7003;36547;50.514;30.840;2023-08-08T05:03:55;1.90;1.90;1.80
50589;PMS7003;36547;50.514;30.840;2023-08-08T05:04:58;4.36;3.55;2.91
50589;PMS7003;36547;50.514;30.840;2023-08-08T05:06:01;2.70;2.70;2.30
50589;PMS7003;36547;50.514;30.840;2023-08-08T05:07:04;4.20;4.00;3.30
50589;PMS7003;36547;50.514;30.840;2023-08-08T05:08:06;3.00;3.00;2.20
50589;PMS7003;36547;50.514;30.840;2023-08-08T05:09:09;2.64;2.64;2.45
50589;PMS7003;36547;50.514;30.840;2023-08-08T05:10:12;2.20;2.20;2.20
50589;PMS7003;36547;50.514;30.840;2023-08-08T05:11:14;2.80;2.80;2.80
50589;PMS7003;36547;50.514;30.840;2023-08-08T05:12:16;2.30;2.30;2.10
50589;PMS7003;36547;50.514;30.840;2023-08-08T05:13:19;1.73;1.73;1.55
50589;PMS7003;36547;50.514;30.840;2023-08-08T05:14:22;2.50;1.70;1.30
50589;PMS7003;36547;50.514;30.840;2023-08-08T05:15:24;3.00;2.00;1.70
50589;PMS7003;36547;50.514;30.840;2023-08-08T05:16:27;2.30;2.30;1.80
50589;PMS7003;36547;50.514;30.840;2023-08-08T05:17:30;3.10;1.60;1.40
50589;PMS7003;36547;50.514;30.840;2023-08-08T05:18:33;2.50;2.40;1.90
50589;PMS7003;36547;50.514;30.840;2023-08-08T05:19:35;1.40;1.40;1.00
50589;PMS7003;36547;50.514;30.840;2023-08-08T05:20:38;2.00;2.00;2.00
50589;PMS7003;36547;50.514;30.840;2023-08-08T05:21:41;1.30;1.30;1.20
50589;PMS7003;36547;50.514;30.840;2023-08-08T05:22:43;1.50;1.50;1.50
50589;PMS7003;36547;50.514;30.840;2023-08-08T05:23:46;2.10;2.10;1.70
50589;PMS7003;36547;50.514;30.840;2023-08-08T05:24:48;1.70;1.70;1.50
50589;PMS7003;36547;50.514;30.840;2023-08-08T05:25:51;2.60;1.80;1.00
50589;PMS7003;36547;50.514;30.840;2023-08-08T05:26:53;2.10;2.10;2.00
50589;PMS7003;36547;50.514;30.840;2023-08-08T05:27:56;2.70;2.40;2.30
50589;PMS7003;36547;50.514;30.840;2023-08-08T05:28:59;2.00;2.00;1.73
50589;PMS7003;36547;50.514;30.840;2023-08-08T05:30:02;1.91;1.91;1.55
50589;PMS7003;36547;50.514;30.840;2023-08-08T05:31:05;1.09;1.09;1.09
50589;PMS7003;36547;50.514;30.840;2023-08-08T05:32:07;1.90;1.90;1.80
50589;PMS7003;36547;50.514;30.840;2023-08-08T05:33:09;2.20;2.20;2.10
50589;PMS7003;36547;50.514;30.840;2023-08-08T05:34:12;1.00;1.00;1.00
50589;PMS7003;36547;50.514;30.840;2023-08-08T05:35:14;2.40;2.10;2.00
50589;PMS7003;36547;50.514;30.840;2023-08-08T05:36:17;3.00;3.00;2.40
50589;PMS7003;36547;50.514;30.840;2023-08-08T05:37:19;2.80;1.90;1.90
50589;PMS7003;36547;50.514;30.840;2023-08-08T05:38:22;2.00;2.00;1.70
50589;PMS7003;36547;50.514;30.840;2023-08-08T05:39:25;1.73;1.73;1.55
50589;PMS7003;36547;50.514;30.840;2023-08-08T05:40:28;1.73;1.73;1.73
50589;PMS7003;36547;50.514;30.840;2023-08-08T05:41:31;2.20;2.20;2.00
50589;PMS7003;36547;50.514;30.840;2023-08-08T05:42:33;2.10;2.10;1.90
50589;PMS7003;36547;50.514;30.840;2023-08-08T05:43:35;3.40;2.20;1.80
50589;PMS7003;36547;50.514;30.840;2023-08-08T05:44:38;1.70;1.70;1.50
50589;PMS7003;36547;50.514;30.840;2023-08-08T05:45:40;1.20;1.20;0.70
50589;PMS7003;36547;50.514;30.840;2023-08-08T05:46:43;1.80;1.80;1.50
50589;PMS7003;36547;50.514;30.840;2023-08-08T05:47:45;1.00;1.00;0.80
50589;PMS7003;36547;50.514;30.840;2023-08-08T05:48:47;2.50;1.90;1.60
50589;PMS7003;36547;50.514;30.840;2023-08-08T05:49:51;2.00;2.00;1.40
50589;PMS7003;36547;50.514;30.840;2023-08-08T05:50:53;2.10;1.10;0.80
50589;PMS7003;36547;50.514;30.840;2023-08-08T05:51:56;2.55;1.64;1.45
50589;PMS7003;36547;50.514;30.840;2023-08-08T05:52:58;2.00;1.20;1.10
50589;PMS7003;36547;50.514;30.840;2023-08-08T05:54:01;0.50;0.50;0.50
50589;PMS7003;36547;50.514;30.840;2023-08-08T05:55:04;1.10;1.10;1.00
50589;PMS7003;36547;50.514;30.840;2023-08-08T05:56:08;1.00;1.00;0.80
50589;PMS7003;36547;50.514;30.840;2023-08-08T05:57:10;2.00;2.00;1.80
50589;PMS7003;36547;50.514;30.840;2023-08-08T05:58:12;2.00;2.00;2.00
50589;PMS7003;36547;50.514;30.840;2023-08-08T05:59:14;1.10;1.10;1.10
50589;PMS7003;36547;50.514;30.840;2023-08-08T06:00:17;1.80;1.80;1.60
50589;PMS7003;36547;50.514;30.840;2023-08-08T06:01:21;1.00;1.00;0.90
50589;PMS7003;36547;50.514;30.840;2023-08-08T06:02:24;2.40;1.00;1.00
50589;PMS7003;36547;50.514;30.840;2023-08-08T06:03:26;1.20;1.10;1.00
50589;PMS7003;36547;50.514;30.840;2023-08-08T06:04:28;1.00;1.00;0.70
50589;PMS7003;36547;50.514;30.840;2023-08-08T06:05:31;1.00;1.00;0.82
50589;PMS7003;36547;50.514;30.840;2023-08-08T06:06:33;1.10;1.10;1.00
50589;PMS7003;36547;50.514;30.840;2023-08-08T06:07:36;0.80;0.80;0.80
50589;PMS7003;36547;50.514;30.840;2023-08-08T06:08:38;0.45;0.45;0.45
50589;PMS7003;36547;50.514;30.840;2023-08-08T06:09:41;1.50;1.50;1.40
50589;PMS7003;36547;50.514;30.840;2023-08-08T06:10:43;2.27;1.27;1.00